sensor_id;sensor_type;location;lat;lon;timestamp;temperature;humidity
30001;DHT22;16845;48.670;9.000;2023-02-26T00:01:11;0.50;99.90
30001;DHT22;16845;48.670;9.000;2023-02-26T00:03:39;0.50;99.90
30001;DHT22;16845;48.670;9.000;2023-02-26T00:06:07;0.60;99.90
30001;DHT22;16845;48.670;9.000;2023-02-26T00:08:36;0.50;99.90
30001;DHT22;16845;48.670;9.000;2023-02-26T00:11:05;0.50;99.90
30001;DHT22;16845;48.670;9.000;2023-02-26T00:13:35;0.50;99.90
30001;DHT22;16845;48.670;9.000;2023-02-26T00:16:12;0.50;99.90
30001;DHT22;16845;48.670;9.000;2023-02-26T00:18:42;0.50;99.90
30001;DHT22;16845;48.670;9.000;2023-02-26T00:21:14;0.50;99.90
30001;DHT22;16845;48.670;9.000;2023-02-26T00:23:43;0.40;99.90
30001;DHT22;16845;48.670;9.000;2023-02-26T00:26:11;0.30;99.90
30001;DHT22;16845;48.670;9.000;2023-02-26T00:28:40;0.30;99.90
30001;DHT22;16845;48.670;9.000;2023-02-26T00:31:10;0.20;99.90
30001;DHT22;16845;48.670;9.000;2023-02-26T00:33:39;0.30;99.90
30001;DHT22;16845;48.670;9.000;2023-02-26T00:36:24;0.20;99.90
30001;DHT22;16845;48.670;9.000;2023-02-26T00:39:05;0.20;99.90
30001;DHT22;16845;48.670;9.000;2023-02-26T00:41:34;0.10;99.90
30001;DHT22;16845;48.670;9.000;2023-02-26T00:44:05;0.10;99.90
30001;DHT22;16845;48.670;9.000;2023-02-26T00:46:41;0.00;99.90
30001;DHT22;16845;48.670;9.000;2023-02-26T00:49:19;0.00;99.90
30001;DHT22;16845;48.670;9.000;2023-02-26T00:51:53;-0.10;99.90
30001;DHT22;16845;48.670;9.000;2023-02-26T00:54:24;-0.10;99.90
30001;DHT22;16845;48.670;9.000;2023-02-26T00:56:53;0.00;99.90
30001;DHT22;16845;48.670;9.000;2023-02-26T00:59:22;-0.10;99.90
30001;DHT22;16845;48.670;9.000;2023-02-26T01:01:52;-0.20;99.90
30001;DHT22;16845;48.670;9.000;2023-02-26T01:04:21;-0.20;99.90
30001;DHT22;16845;48.670;9.000;2023-02-26T01:06:52;-0.20;99.90
30001;DHT22;16845;48.670;9.000;2023-02-26T01:09:24;-0.20;99.90
30001;DHT22;16845;48.670;9.000;2023-02-26T01:11:53;-0.20;99.90
30001;DHT22;16845;48.670;9.000;2023-02-26T01:14:23;-0.30;99.90
30001;DHT22;16845;48.670;9.000;2023-02-26T01:16:58;-0.30;99.90
30001;DHT22;16845;48.670;9.000;2023-02-26T01:19:34;-0.30;99.90
30001;DHT22;16845;48.670;9.000;2023-02-26T01:22:09;-0.30;99.90
30001;DHT22;16845;48.670;9.000;2023-02-26T01:24:39;-0.30;99.90
30001;DHT22;16845;48.670;9.000;2023-02-26T01:27:08;-0.30;99.90
30001;DHT22;16845;48.670;9.000;2023-02-26T01:29:36;-0.30;99.90
30001;DHT22;16845;48.670;9.000;2023-02-26T01:32:10;-0.30;99.90
30001;DHT22;16845;48.670;9.000;2023-02-26T01:34:44;-0.30;99.90
30001;DHT22;16845;48.670;9.000;2023-02-26T01:37:21;-0.20;99.90
30001;DHT22;16845;48.670;9.000;2023-02-26T01:42:43;-0.30;99.90
30001;DHT22;16845;48.670;9.000;2023-02-26T01:45:16;-0.40;99.90
30001;DHT22;16845;48.670;9.000;2023-02-26T01:47:50;-0.40;99.90
30001;DHT22;16845;48.670;9.000;2023-02-26T01:50:22;-0.40;99.90
30001;DHT22;16845;48.670;9.000;2023-02-26T01:53:15;-0.50;99.90
30001;DHT22;16845;48.670;9.000;2023-02-26T01:55:46;-0.50;99.90
30001;DHT22;16845;48.670;9.000;2023-02-26T01:58:16;-0.60;99.90
30001;DHT22;16845;48.670;9.000;2023-02-26T02:00:45;-0.60;99.90
30001;DHT22;16845;48.670;9.000;2023-02-26T02:03:14;-0.60;99.90
30001;DHT22;16845;48.670;9.000;2023-02-26T02:05:46;-0.70;99.90
30001;DHT22;16845;48.670;9.000;2023-02-26T02:08:14;-0.80;99.90
30001;DHT22;16845;48.670;9.000;2023-02-26T02:10:44;-0.70;99.90
30001;DHT22;16845;48.670;9.000;2023-02-26T02:13:20;-0.70;99.90
30001;DHT22;16845;48.670;9.000;2023-02-26T02:15:56;-0.70;99.90
30001;DHT22;16845;48.670;9.000;2023-02-26T02:18:36;-0.90;99.90
30001;DHT22;16845;48.670;9.000;2023-02-26T02:21:27;-0.90;99.90
30001;DHT22;16845;48.670;9.000;2023-02-26T02:24:00;-1.00;99.90
30001;DHT22;16845;48.670;9.000;2023-02-26T02:26:47;-0.90;99.90
30001;DHT22;16845;48.670;9.000;2023-02-26T02:29:52;-0.90;99.90
30001;DHT22;16845;48.670;9.000;2023-02-26T02:32:28;-0.80;99.90
30001;DHT22;16845;48.670;9.000;2023-02-26T02:35:02;-0.70;99.90
30001;DHT22;16845;48.670;9.000;2023-02-26T02:37:35;-0.60;99.90
30001;DHT22;16845;48.670;9.000;2023-02-26T02:40:06;-0.50;99.90
30001;DHT22;16845;48.670;9.000;2023-02-26T02:42:38;-0.60;99.90
30001;DHT22;16845;48.670;9.000;2023-02-26T02:45:10;-0.70;99.90
30001;DHT22;16845;48.670;9.000;2023-02-26T02:47:43;-0.80;99.90
30001;DHT22;16845;48.670;9.000;2023-02-26T02:50:18;-0.90;99.90
30001;DHT22;16845;48.670;9.000;2023-02-26T02:52:51;-1.00;99.90
30001;DHT22;16845;48.670;9.000;2023-02-26T02:55:24;-1.00;99.90
30001;DHT22;16845;48.670;9.000;2023-02-26T02:57:57;-1.10;99.90
30001;DHT22;16845;48.670;9.000;2023-02-26T03:00:30;-1.20;99.90
30001;DHT22;16845;48.670;9.000;2023-02-26T03:03:05;-1.30;99.90
30001;DHT22;16845;48.670;9.000;2023-02-26T03:05:36;-1.30;99.90
30001;DHT22;16845;48.670;9.000;2023-02-26T03:08:08;-1.40;99.90
30001;DHT22;16845;48.670;9.000;2023-02-26T03:10:37;-1.30;99.90
30001;DHT22;16845;48.670;9.000;2023-02-26T03:13:05;-1.30;99.90
30001;DHT22;16845;48.670;9.000;2023-02-26T03:15:40;-1.30;99.90
30001;DHT22;16845;48.670;9.000;2023-02-26T03:18:19;-1.30;99.90
30001;DHT22;16845;48.670;9.000;2023-02-26T03:20:55;-1.30;99.90
30001;DHT22;16845;48.670;9.000;2023-02-26T03:23:28;-1.40;99.90
30001;DHT22;16845;48.670;9.000;2023-02-26T03:26:03;-1.40;99.90
30001;DHT22;16845;48.670;9.000;2023-02-26T03:28:40;-1.50;99.90
30001;DHT22;16845;48.670;9.000;2023-02-26T03:31:15;-1.60;99.90
30001;DHT22;16845;48.670;9.000;2023-02-26T03:33:51;-1.60;99.90
30001;DHT22;16845;48.670;9.000;2023-02-26T03:36:24;-1.60;99.90
30001;DHT22;16845;48.670;9.000;2023-02-26T03:38:56;-1.70;99.90
30001;DHT22;16845;48.670;9.000;2023-02-26T03:41:29;-1.70;99.90
30001;DHT22;16845;48.670;9.000;2023-02-26T03:44:02;-1.60;99.90
30001;DHT22;16845;48.670;9.000;2023-02-26T03:46:35;-1.60;99.90
30001;DHT22;16845;48.670;9.000;2023-02-26T03:49:12;-1.60;99.90
30001;DHT22;16845;48.670;9.000;2023-02-26T03:51:42;-1.60;99.90
30001;DHT22;16845;48.670;9.000;2023-02-26T03:54:15;-1.60;99.90
30001;DHT22;16845;48.670;9.000;2023-02-26T03:56:46;-1.70;99.90
30001;DHT22;16845;48.670;9.000;2023-02-26T03:59:15;-1.70;99.90
30001;DHT22;16845;48.670;9.000;2023-02-26T04:01:47;-1.70;99.90
30001;DHT22;16845;48.670;9.000;2023-02-26T04:04:21;-1.80;99.90
30001;DHT22;16845;48.670;9.000;2023-02-26T04:06:50;-1.80;99.90
30001;DHT22;16845;48.670;9.000;2023-02-26T04:09:20;-1.80;99.90
30001;DHT22;16845;48.670;9.000;2023-02-26T04:11:48;-1.80;99.90
30001;DHT22;16845;48.670;9.000;2023-02-26T04:14:17;-1.80;99.90
30001;DHT22;16845;48.670;9.000;2023-02-26T04:16:46;-1.90;99.90
30001;DHT22;16845;48.670;9.000;2023-02-26T04:19:14;-2.00;99.90
30001;DHT22;16845;48.670;9.000;2023-02-26T04:21:44;-1.90;99.90
30001;DHT22;16845;48.670;9.000;2023-02-26T04:24:12;-1.90;99.90
30001;DHT22;16845;48.670;9.000;2023-02-26T04:26:40;-1.90;99.90
30001;DHT22;16845;48.670;9.000;2023-02-26T04:29:08;-1.90;99.90
30001;DHT22;16845;48.670;9.000;2023-02-26T04:31:36;-1.90;99.90
30001;DHT22;16845;48.670;9.000;2023-02-26T04:34:04;-1.90;99.90
30001;DHT22;16845;48.670;9.000;2023-02-26T04:36:32;-1.90;99.90
30001;DHT22;16845;48.670;9.000;2023-02-26T04:39:01;-2.00;99.90
30001;DHT22;16845;48.670;9.000;2023-02-26T04:41:29;-2.00;99.90
30001;DHT22;16845;48.670;9.000;2023-02-26T04:43:57;-2.10;99.90
30001;DHT22;16845;48.670;9.000;2023-02-26T04:46:25;-2.20;99.90
30001;DHT22;16845;48.670;9.000;2023-02-26T04:48:53;-2.20;99.90
30001;DHT22;16845;48.670;9.000;2023-02-26T04:51:21;-2.20;99.90
30001;DHT22;16845;48.670;9.000;2023-02-26T04:53:49;-2.10;99.90
30001;DHT22;16845;48.670;9.000;2023-02-26T04:56:19;-2.20;99.90
30001;DHT22;16845;48.670;9.000;2023-02-26T04:58:47;-2.20;99.90
30001;DHT22;16845;48.670;9.000;2023-02-26T05:01:15;-2.20;99.90
30001;DHT22;16845;48.670;9.000;2023-02-26T05:03:44;-2.30;99.90
30001;DHT22;16845;48.670;9.000;2023-02-26T05:06:11;-2.20;99.90
30001;DHT22;16845;48.670;9.000;2023-02-26T05:08:39;-2.30;99.90
30001;DHT22;16845;48.670;9.000;2023-02-26T05:11:09;-2.30;99.90
30001;DHT22;16845;48.670;9.000;2023-02-26T05:13:38;-2.30;99.90
30001;DHT22;16845;48.670;9.000;2023-02-26T05:16:07;-2.30;99.90
30001;DHT22;16845;48.670;9.000;2023-02-26T05:18:35;-2.20;99.90
30001;DHT22;16845;48.670;9.000;2023-02-26T05:21:03;-2.10;99.90
30001;DHT22;16845;48.670;9.000;2023-02-26T05:23:31;-2.00;99.90
30001;DHT22;16845;48.670;9.000;2023-02-26T05:25:59;-1.80;99.90
30001;DHT22;16845;48.670;9.000;2023-02-26T05:28:27;-1.80;99.90
30001;DHT22;16845;48.670;9.000;2023-02-26T05:30:57;-1.80;99.90
30001;DHT22;16845;48.670;9.000;2023-02-26T05:33:25;-1.80;99.90
30001;DHT22;16845;48.670;9.000;2023-02-26T05:35:53;-1.80;99.90
30001;DHT22;16845;48.670;9.000;2023-02-26T05:38:22;-1.90;99.90
30001;DHT22;16845;48.670;9.000;2023-02-26T05:40:50;-1.90;99.90
30001;DHT22;16845;48.670;9.000;2023-02-26T05:43:22;-2.00;99.90
30001;DHT22;16845;48.670;9.000;2023-02-26T05:45:50;-2.10;99.90
30001;DHT22;16845;48.670;9.000;2023-02-26T05:48:20;-2.10;99.90
30001;DHT22;16845;48.670;9.000;2023-02-26T05:50:48;-2.20;99.90
30001;DHT22;16845;48.670;9.000;2023-02-26T05:53:17;-2.30;99.90
30001;DHT22;16845;48.670;9.000;2023-02-26T05:55:45;-2.30;99.90
30001;DHT22;16845;48.670;9.000;2023-02-26T05:58:13;-2.30;99.90
30001;DHT22;16845;48.670;9.000;2023-02-26T06:00:42;-2.30;99.90
30001;DHT22;16845;48.670;9.000;2023-02-26T06:03:10;-2.40;99.90
30001;DHT22;16845;48.670;9.000;2023-02-26T06:05:39;-2.40;99.90
30001;DHT22;16845;48.670;9.000;2023-02-26T06:08:07;-2.40;99.90
30001;DHT22;16845;48.670;9.000;2023-02-26T06:10:37;-2.50;99.90
30001;DHT22;16845;48.670;9.000;2023-02-26T06:13:05;-2.50;99.90
30001;DHT22;16845;48.670;9.000;2023-02-26T06:15:33;-2.50;99.90
30001;DHT22;16845;48.670;9.000;2023-02-26T06:18:01;-2.50;99.90
30001;DHT22;16845;48.670;9.000;2023-02-26T06:20:29;-2.50;99.90
30001;DHT22;16845;48.670;9.000;2023-02-26T06:22:58;-2.50;99.90
30001;DHT22;16845;48.670;9.000;2023-02-26T06:25:26;-2.40;99.90
30001;DHT22;16845;48.670;9.000;2023-02-26T06:27:54;-2.40;99.90
30001;DHT22;16845;48.670;9.000;2023-02-26T06:30:22;-2.30;99.90
30001;DHT22;16845;48.670;9.000;2023-02-26T06:32:50;-2.30;99.90
30001;DHT22;16845;48.670;9.000;2023-02-26T06:35:18;-2.20;99.90
30001;DHT22;16845;48.670;9.000;2023-02-26T06:37:46;-2.30;99.90
30001;DHT22;16845;48.670;9.000;2023-02-26T06:40:15;-2.20;99.90
30001;DHT22;16845;48.670;9.000;2023-02-26T06:42:44;-2.20;99.90
30001;DHT22;16845;48.670;9.000;2023-02-26T06:45:12;-2.20;99.90
30001;DHT22;16845;48.670;9.000;2023-02-26T06:47:40;-2.20;99.90
30001;DHT22;16845;48.670;9.000;2023-02-26T06:50:09;-2.20;99.90
30001;DHT22;16845;48.670;9.000;2023-02-26T06:52:37;-2.20;99.90
30001;DHT22;16845;48.670;9.000;2023-02-26T06:55:06;-2.20;99.90
30001;DHT22;16845;48.670;9.000;2023-02-26T06:57:35;-2.10;99.90
30001;DHT22;16845;48.670;9.000;2023-02-26T07:00:04;-2.10;99.90
30001;DHT22;16845;48.670;9.000;2023-02-26T07:02:33;-2.00;99.90
30001;DHT22;16845;48.670;9.000;2023-02-26T07:05:01;-1.90;99.90
30001;DHT22;16845;48.670;9.000;2023-02-26T07:07:29;-1.80;99.90
30001;DHT22;16845;48.670;9.000;2023-02-26T07:09:57;-1.80;99.90
30001;DHT22;16845;48.670;9.000;2023-02-26T07:12:25;-1.70;99.90
30001;DHT22;16845;48.670;9.000;2023-02-26T07:14:54;-1.60;99.90
30001;DHT22;16845;48.670;9.000;2023-02-26T07:17:22;-1.70;99.90
30001;DHT22;16845;48.670;9.000;2023-02-26T07:19:51;-1.70;99.90
30001;DHT22;16845;48.670;9.000;2023-02-26T07:22:19;-1.70;99.90
30001;DHT22;16845;48.670;9.000;2023-02-26T07:24:48;-1.70;99.90
30001;DHT22;16845;48.670;9.000;2023-02-26T07:27:17;-1.60;99.90
30001;DHT22;16845;48.670;9.000;2023-02-26T07:29:45;-1.40;99.90
30001;DHT22;16845;48.670;9.000;2023-02-26T07:32:14;-1.20;99.90
30001;DHT22;16845;48.670;9.000;2023-02-26T07:34:42;-1.20;99.90
30001;DHT22;16845;48.670;9.000;2023-02-26T07:37:10;-0.90;99.90
30001;DHT22;16845;48.670;9.000;2023-02-26T07:39:38;-0.80;99.90
30001;DHT22;16845;48.670;9.000;2023-02-26T07:42:06;-0.50;99.90
30001;DHT22;16845;48.670;9.000;2023-02-26T07:44:35;-0.30;99.90
30001;DHT22;16845;48.670;9.000;2023-02-26T07:47:03;-0.20;99.90
30001;DHT22;16845;48.670;9.000;2023-02-26T07:49:32;-0.10;99.90
30001;DHT22;16845;48.670;9.000;2023-02-26T07:52:01;0.10;99.90
30001;DHT22;16845;48.670;9.000;2023-02-26T07:54:29;0.10;99.90
30001;DHT22;16845;48.670;9.000;2023-02-26T07:56:57;0.10;99.90
30001;DHT22;16845;48.670;9.000;2023-02-26T07:59:25;0.20;99.90
30001;DHT22;16845;48.670;9.000;2023-02-26T08:01:53;0.20;99.90
30001;DHT22;16845;48.670;9.000;2023-02-26T08:04:21;0.40;99.90
30001;DHT22;16845;48.670;9.000;2023-02-26T08:06:51;0.40;99.90
30001;DHT22;16845;48.670;9.000;2023-02-26T08:09:20;0.40;99.90
30001;DHT22;16845;48.670;9.000;2023-02-26T08:11:48;0.10;99.90
30001;DHT22;16845;48.670;9.000;2023-02-26T08:14:16;0.10;99.90
30001;DHT22;16845;48.670;9.000;2023-02-26T08:16:44;0.20;99.90
30001;DHT22;16845;48.670;9.000;2023-02-26T08:19:12;0.60;99.90
30001;DHT22;16845;48.670;9.000;2023-02-26T08:21:40;0.60;99.90
30001;DHT22;16845;48.670;9.000;2023-02-26T08:24:10;0.40;99.90
30001;DHT22;16845;48.670;9.000;2023-02-26T08:26:39;0.20;99.90
30001;DHT22;16845;48.670;9.000;2023-02-26T08:29:07;0.30;99.90
30001;DHT22;16845;48.670;9.000;2023-02-26T08:31:35;0.10;99.90
30001;DHT22;16845;48.670;9.000;2023-02-26T08:34:03;0.00;99.90
30001;DHT22;16845;48.670;9.000;2023-02-26T08:36:32;0.10;99.90
30001;DHT22;16845;48.670;9.000;2023-02-26T08:39:00;0.40;99.90
30001;DHT22;16845;48.670;9.000;2023-02-26T08:41:29;0.70;99.90
30001;DHT22;16845;48.670;9.000;2023-02-26T08:43:58;0.80;99.90
30001;DHT22;16845;48.670;9.000;2023-02-26T08:46:27;0.60;99.90
30001;DHT22;16845;48.670;9.000;2023-02-26T08:48:55;0.60;99.90
30001;DHT22;16845;48.670;9.000;2023-02-26T08:51:23;0.50;99.90
30001;DHT22;16845;48.670;9.000;2023-02-26T08:53:52;0.40;99.90
30001;DHT22;16845;48.670;9.000;2023-02-26T08:56:20;0.60;99.90
30001;DHT22;16845;48.670;9.000;2023-02-26T08:58:49;0.60;99.90
30001;DHT22;16845;48.670;9.000;2023-02-26T09:01:17;0.40;99.90
30001;DHT22;16845;48.670;9.000;2023-02-26T09:03:45;0.20;99.90
30001;DHT22;16845;48.670;9.000;2023-02-26T09:06:13;0.50;99.90
30001;DHT22;16845;48.670;9.000;2023-02-26T09:08:41;0.30;99.90
30001;DHT22;16845;48.670;9.000;2023-02-26T09:11:09;0.20;99.90
30001;DHT22;16845;48.670;9.000;2023-02-26T09:13:37;0.10;99.90
30001;DHT22;16845;48.670;9.000;2023-02-26T09:16:07;0.10;99.90
30001;DHT22;16845;48.670;9.000;2023-02-26T09:18:35;0.20;99.90
30001;DHT22;16845;48.670;9.000;2023-02-26T09:21:04;0.20;99.90
30001;DHT22;16845;48.670;9.000;2023-02-26T09:23:32;0.20;99.90
30001;DHT22;16845;48.670;9.000;2023-02-26T09:26:00;0.10;99.90
30001;DHT22;16845;48.670;9.000;2023-02-26T09:28:27;0.30;99.90
30001;DHT22;16845;48.670;9.000;2023-02-26T09:30:55;0.20;99.90
30001;DHT22;16845;48.670;9.000;2023-02-26T09:33:25;0.00;99.90
30001;DHT22;16845;48.670;9.000;2023-02-26T09:35:53;-0.10;99.90
30001;DHT22;16845;48.670;9.000;2023-02-26T09:38:21;-0.20;99.90
30001;DHT22;16845;48.670;9.000;2023-02-26T09:40:51;-0.10;99.90
30001;DHT22;16845;48.670;9.000;2023-02-26T09:46:32;0.00;99.90
30001;DHT22;16845;48.670;9.000;2023-02-26T09:49:14;-0.10;99.90
30001;DHT22;16845;48.670;9.000;2023-02-26T09:51:44;0.00;99.90
30001;DHT22;16845;48.670;9.000;2023-02-26T09:54:20;-0.10;99.90
30001;DHT22;16845;48.670;9.000;2023-02-26T09:56:50;-0.10;99.90
30001;DHT22;16845;48.670;9.000;2023-02-26T09:59:18;-0.10;99.90
30001;DHT22;16845;48.670;9.000;2023-02-26T10:01:51;-0.10;99.90
30001;DHT22;16845;48.670;9.000;2023-02-26T10:04:41;-0.10;99.90
30001;DHT22;16845;48.670;9.000;2023-02-26T10:07:18;-0.10;99.90
30001;DHT22;16845;48.670;9.000;2023-02-26T10:09:56;0.10;99.90
30001;DHT22;16845;48.670;9.000;2023-02-26T10:12:28;0.30;99.90
30001;DHT22;16845;48.670;9.000;2023-02-26T10:15:00;0.20;99.90
30001;DHT22;16845;48.670;9.000;2023-02-26T10:17:33;0.00;99.90
30001;DHT22;16845;48.670;9.000;2023-02-26T10:20:07;-0.10;99.90
30001;DHT22;16845;48.670;9.000;2023-02-26T10:22:41;0.10;99.90
30001;DHT22;16845;48.670;9.000;2023-02-26T10:25:18;0.20;99.90
30001;DHT22;16845;48.670;9.000;2023-02-26T10:27:54;0.10;99.90
30001;DHT22;16845;48.670;9.000;2023-02-26T10:30:32;0.10;99.90
30001;DHT22;16845;48.670;9.000;2023-02-26T10:33:06;0.10;99.90
30001;DHT22;16845;48.670;9.000;2023-02-26T10:35:43;0.10;99.90
30001;DHT22;16845;48.670;9.000;2023-02-26T10:38:16;0.00;99.90
30001;DHT22;16845;48.670;9.000;2023-02-26T10:40:49;-0.10;99.90
30001;DHT22;16845;48.670;9.000;2023-02-26T10:43:21;0.00;99.90
30001;DHT22;16845;48.670;9.000;2023-02-26T10:46:00;0.10;99.90
30001;DHT22;16845;48.670;9.000;2023-02-26T10:48:43;0.20;99.90
30001;DHT22;16845;48.670;9.000;2023-02-26T10:51:16;0.20;99.90
30001;DHT22;16845;48.670;9.000;2023-02-26T10:53:49;0.20;99.90
30001;DHT22;16845;48.670;9.000;2023-02-26T10:56:21;0.30;99.90
30001;DHT22;16845;48.670;9.000;2023-02-26T10:58:51;0.50;99.90
30001;DHT22;16845;48.670;9.000;2023-02-26T11:01:22;0.60;99.90
30001;DHT22;16845;48.670;9.000;2023-02-26T11:03:55;0.50;99.90
30001;DHT22;16845;48.670;9.000;2023-02-26T11:06:28;0.40;99.90
30001;DHT22;16845;48.670;9.000;2023-02-26T11:08:57;0.60;99.90
30001;DHT22;16845;48.670;9.000;2023-02-26T11:11:40;0.80;99.90
30001;DHT22;16845;48.670;9.000;2023-02-26T11:14:09;0.80;99.90
30001;DHT22;16845;48.670;9.000;2023-02-26T11:16:44;0.80;99.90
30001;DHT22;16845;48.670;9.000;2023-02-26T11:19:14;0.80;99.90
30001;DHT22;16845;48.670;9.000;2023-02-26T11:21:46;0.80;99.90
30001;DHT22;16845;48.670;9.000;2023-02-26T11:24:20;0.90;99.90
30001;DHT22;16845;48.670;9.000;2023-02-26T11:26:54;1.10;99.90
30001;DHT22;16845;48.670;9.000;2023-02-26T11:29:24;1.50;99.90
30001;DHT22;16845;48.670;9.000;2023-02-26T11:31:53;1.50;99.90
30001;DHT22;16845;48.670;9.000;2023-02-26T11:34:24;1.20;99.90
30001;DHT22;16845;48.670;9.000;2023-02-26T11:36:56;1.00;99.90
30001;DHT22;16845;48.670;9.000;2023-02-26T11:39:27;0.80;99.90
30001;DHT22;16845;48.670;9.000;2023-02-26T11:41:57;0.90;99.90
30001;DHT22;16845;48.670;9.000;2023-02-26T11:44:33;0.80;99.90
30001;DHT22;16845;48.670;9.000;2023-02-26T11:47:05;1.00;99.90
30001;DHT22;16845;48.670;9.000;2023-02-26T11:49:34;1.10;99.90
30001;DHT22;16845;48.670;9.000;2023-02-26T11:52:14;1.20;99.90
30001;DHT22;16845;48.670;9.000;2023-02-26T11:54:44;1.10;99.90
30001;DHT22;16845;48.670;9.000;2023-02-26T11:57:16;1.00;99.90
30001;DHT22;16845;48.670;9.000;2023-02-26T11:59:48;0.80;99.90
30001;DHT22;16845;48.670;9.000;2023-02-26T12:02:18;0.80;99.90
30001;DHT22;16845;48.670;9.000;2023-02-26T12:04:48;0.80;99.90
30001;DHT22;16845;48.670;9.000;2023-02-26T12:07:20;0.80;99.90
30001;DHT22;16845;48.670;9.000;2023-02-26T12:09:48;0.70;99.90
30001;DHT22;16845;48.670;9.000;2023-02-26T12:12:34;0.80;99.90
30001;DHT22;16845;48.670;9.000;2023-02-26T12:15:28;0.90;99.90
30001;DHT22;16845;48.670;9.000;2023-02-26T12:18:16;0.90;99.90
30001;DHT22;16845;48.670;9.000;2023-02-26T12:20:54;1.00;99.90
30001;DHT22;16845;48.670;9.000;2023-02-26T12:23:39;1.10;99.90
30001;DHT22;16845;48.670;9.000;2023-02-26T12:26:24;1.20;99.90
30001;DHT22;16845;48.670;9.000;2023-02-26T12:29:18;1.00;99.90
30001;DHT22;16845;48.670;9.000;2023-02-26T12:32:16;0.80;99.90
30001;DHT22;16845;48.670;9.000;2023-02-26T12:35:11;0.70;99.90
30001;DHT22;16845;48.670;9.000;2023-02-26T12:37:52;0.60;99.90
30001;DHT22;16845;48.670;9.000;2023-02-26T12:40:37;0.60;99.90
30001;DHT22;16845;48.670;9.000;2023-02-26T12:43:12;0.50;99.90
30001;DHT22;16845;48.670;9.000;2023-02-26T12:45:50;0.60;99.90
30001;DHT22;16845;48.670;9.000;2023-02-26T12:48:42;0.70;99.90
30001;DHT22;16845;48.670;9.000;2023-02-26T12:51:21;0.80;99.90
30001;DHT22;16845;48.670;9.000;2023-02-26T12:54:05;0.70;99.90
30001;DHT22;16845;48.670;9.000;2023-02-26T12:57:03;0.70;99.90
30001;DHT22;16845;48.670;9.000;2023-02-26T13:00:03;0.80;99.90
30001;DHT22;16845;48.670;9.000;2023-02-26T13:03:01;0.80;99.90
30001;DHT22;16845;48.670;9.000;2023-02-26T13:05:45;0.80;99.90
30001;DHT22;16845;48.670;9.000;2023-02-26T13:08:24;0.70;99.90
30001;DHT22;16845;48.670;9.000;2023-02-26T13:11:05;0.80;99.90
30001;DHT22;16845;48.670;9.000;2023-02-26T13:13:48;1.00;99.90
30001;DHT22;16845;48.670;9.000;2023-02-26T13:16:31;1.00;99.90
30001;DHT22;16845;48.670;9.000;2023-02-26T13:19:07;1.20;99.90
30001;DHT22;16845;48.670;9.000;2023-02-26T13:21:43;1.30;99.90
30001;DHT22;16845;48.670;9.000;2023-02-26T13:24:15;1.30;99.90
30001;DHT22;16845;48.670;9.000;2023-02-26T13:26:47;1.20;99.90
30001;DHT22;16845;48.670;9.000;2023-02-26T13:29:18;1.30;99.90
30001;DHT22;16845;48.670;9.000;2023-02-26T13:31:50;1.40;99.90
30001;DHT22;16845;48.670;9.000;2023-02-26T13:34:24;1.40;99.90
30001;DHT22;16845;48.670;9.000;2023-02-26T13:36:53;1.30;99.90
30001;DHT22;16845;48.670;9.000;2023-02-26T13:39:32;1.20;99.90
30001;DHT22;16845;48.670;9.000;2023-02-26T13:42:10;1.30;99.90
30001;DHT22;16845;48.670;9.000;2023-02-26T13:44:50;1.20;99.90
30001;DHT22;16845;48.670;9.000;2023-02-26T13:47:40;1.10;99.90
30001;DHT22;16845;48.670;9.000;2023-02-26T13:50:24;1.10;99.90
30001;DHT22;16845;48.670;9.000;2023-02-26T13:52:55;1.00;99.90
30001;DHT22;16845;48.670;9.000;2023-02-26T13:55:42;0.90;99.90
30001;DHT22;16845;48.670;9.000;2023-02-26T13:58:28;0.90;99.90
30001;DHT22;16845;48.670;9.000;2023-02-26T14:01:05;0.90;99.90
30001;DHT22;16845;48.670;9.000;2023-02-26T14:03:34;1.10;99.90
30001;DHT22;16845;48.670;9.000;2023-02-26T14:06:08;1.30;99.90
30001;DHT22;16845;48.670;9.000;2023-02-26T14:08:45;1.30;99.90
30001;DHT22;16845;48.670;9.000;2023-02-26T14:11:44;1.50;99.90
30001;DHT22;16845;48.670;9.000;2023-02-26T14:14:18;1.70;99.90
30001;DHT22;16845;48.670;9.000;2023-02-26T14:16:58;1.90;99.90
30001;DHT22;16845;48.670;9.000;2023-02-26T14:23:12;1.90;99.90
30001;DHT22;16845;48.670;9.000;2023-02-26T14:25:44;1.90;99.90
30001;DHT22;16845;48.670;9.000;2023-02-26T14:28:20;2.00;99.90
30001;DHT22;16845;48.670;9.000;2023-02-26T14:31:06;2.00;99.90
30001;DHT22;16845;48.670;9.000;2023-02-26T14:33:43;2.20;99.90
30001;DHT22;16845;48.670;9.000;2023-02-26T14:36:17;2.30;99.90
30001;DHT22;16845;48.670;9.000;2023-02-26T14:38:47;2.20;99.90
30001;DHT22;16845;48.670;9.000;2023-02-26T14:41:24;2.20;99.90
30001;DHT22;16845;48.670;9.000;2023-02-26T14:43:59;2.20;99.90
30001;DHT22;16845;48.670;9.000;2023-02-26T14:46:28;2.20;99.90
30001;DHT22;16845;48.670;9.000;2023-02-26T14:48:58;3.00;99.90
30001;DHT22;16845;48.670;9.000;2023-02-26T14:51:41;3.40;99.90
30001;DHT22;16845;48.670;9.000;2023-02-26T14:54:33;3.10;99.90
30001;DHT22;16845;48.670;9.000;2023-02-26T14:57:10;3.10;99.90
30001;DHT22;16845;48.670;9.000;2023-02-26T15:00:00;3.30;99.90
30001;DHT22;16845;48.670;9.000;2023-02-26T15:02:49;3.60;99.90
30001;DHT22;16845;48.670;9.000;2023-02-26T15:05:39;4.00;99.90
30001;DHT22;16845;48.670;9.000;2023-02-26T15:08:28;4.50;99.90
30001;DHT22;16845;48.670;9.000;2023-02-26T15:11:13;4.50;99.90
30001;DHT22;16845;48.670;9.000;2023-02-26T15:14:02;3.90;99.90
30001;DHT22;16845;48.670;9.000;2023-02-26T15:16:44;3.50;99.90
30001;DHT22;16845;48.670;9.000;2023-02-26T15:19:27;3.00;99.90
30001;DHT22;16845;48.670;9.000;2023-02-26T15:22:10;2.40;99.90
30001;DHT22;16845;48.670;9.000;2023-02-26T15:24:41;2.10;99.90
30001;DHT22;16845;48.670;9.000;2023-02-26T15:27:14;2.10;99.90
30001;DHT22;16845;48.670;9.000;2023-02-26T15:29:42;2.10;99.90
30001;DHT22;16845;48.670;9.000;2023-02-26T15:32:16;2.00;99.90
30001;DHT22;16845;48.670;9.000;2023-02-26T15:34:54;2.20;99.90
30001;DHT22;16845;48.670;9.000;2023-02-26T15:37:27;2.30;99.90
30001;DHT22;16845;48.670;9.000;2023-02-26T15:39:55;2.20;99.90
30001;DHT22;16845;48.670;9.000;2023-02-26T15:42:29;2.00;99.90
30001;DHT22;16845;48.670;9.000;2023-02-26T15:45:00;2.20;99.90
30001;DHT22;16845;48.670;9.000;2023-02-26T15:47:29;2.10;99.90
30001;DHT22;16845;48.670;9.000;2023-02-26T15:49:59;2.00;99.90
30001;DHT22;16845;48.670;9.000;2023-02-26T15:52:28;1.80;99.90
30001;DHT22;16845;48.670;9.000;2023-02-26T15:55:02;1.50;99.90
30001;DHT22;16845;48.670;9.000;2023-02-26T15:57:31;1.30;99.90
30001;DHT22;16845;48.670;9.000;2023-02-26T16:00:06;1.30;99.90
30001;DHT22;16845;48.670;9.000;2023-02-26T16:02:36;1.30;99.90
30001;DHT22;16845;48.670;9.000;2023-02-26T16:05:04;1.30;99.90
30001;DHT22;16845;48.670;9.000;2023-02-26T16:07:34;1.20;99.90
30001;DHT22;16845;48.670;9.000;2023-02-26T16:10:05;1.10;99.90
30001;DHT22;16845;48.670;9.000;2023-02-26T16:12:36;1.20;99.90
30001;DHT22;16845;48.670;9.000;2023-02-26T16:15:12;1.20;99.90
30001;DHT22;16845;48.670;9.000;2023-02-26T16:17:42;1.30;99.90
30001;DHT22;16845;48.670;9.000;2023-02-26T16:20:14;1.50;99.90
30001;DHT22;16845;48.670;9.000;2023-02-26T16:22:47;1.60;99.90
30001;DHT22;16845;48.670;9.000;2023-02-26T16:25:21;1.40;99.90